This is the latest recevied weather packets stored in our database for station/object EFTP. If no packets are shown the sender has not sent any weather packets the latest 1 day(s).
| Time | Temp. | Humidity | Pressure | Rain* | Wind** | Luminosity | Snow |
|---|---|---|---|---|---|---|---|
| 1778000839 | 7.22° C | 46% | 1005.4 hPa | - | 5.81 m/s, 282° | - | - |
| 1777999639 | 7.78° C | 45% | 1005.1 hPa | - | 5.81 m/s, 271° | - | - |
| 1777998439 | 7.78° C | 43% | 1005.1 hPa | - | 4.47 m/s, 284° | - | - |
| 1777997239 | 7.22° C | 45% | 1004.9 hPa | - | 5.36 m/s, 270° | - | - |
| 1777996039 | 7.78° C | 43% | 1004.8 hPa | - | 4.92 m/s, 260° | - | - |
| 1777994839 | 8.33° C | 40% | 1004.6 hPa | - | 6.26 m/s, 258° | - | - |
| 1777993639 | 8.33° C | 41% | 1004.6 hPa | - | 4.92 m/s, 272° | - | - |
| 1777992439 | 8.33° C | 41% | 1004.5 hPa | - | 5.81 m/s, 278° | - | - |
| 1777991239 | 8.33° C | 38% | 1004.4 hPa | - | 7.15 m/s, 258° | - | - |
| 1777990038 | 8.89° C | 40% | 1004.2 hPa | - | 7.6 m/s, 253° | - | - |
| 1777988839 | 9.44° C | 40% | 1004.3 hPa | - | 6.71 m/s, 261° | - | - |
| 1777987638 | 8.33° C | 40% | 1004.1 hPa | - | 7.15 m/s, 261° | - | - |
| 1777986439 | 7.78° C | 43% | 1004.2 hPa | - | 6.71 m/s, 266° | - | - |
| 1777985238 | 7.78° C | 44% | 1004 hPa | - | 5.81 m/s, 282° | - | - |
| 1777984038 | 8.89° C | 42% | 1003.8 hPa | - | 7.6 m/s, 258° | - | - |
| 1777982838 | 8.33° C | 43% | 1003.6 hPa | - | 7.6 m/s, 265° | - | - |
| 1777981638 | 7.78° C | 43% | 1003.6 hPa | - | 7.6 m/s, 267° | - | - |
| 1777980438 | 7.78° C | 44% | 1003.4 hPa | - | 8.49 m/s, 265° | - | - |
| 1777979238 | 7.78° C | 48% | 1003.2 hPa | - | 5.81 m/s, 277° | - | - |
| 1777978038 | 7.22° C | 51% | 1003 hPa | - | 6.26 m/s, 291° | - | - |
| 1777976838 | 7.22° C | 48% | 1002.8 hPa | - | 6.71 m/s, 282° | - | - |
| 1777975638 | 7.78° C | 52% | 1002.6 hPa | - | 5.36 m/s, 261° | - | - |
| 1777974437 | 6.11° C | 63% | 1002.6 hPa | - | 5.81 m/s, 266° | - | - |
* Rain since midnight (hover to see other rain measurements)
** Current wind speed in m/s (hover to see current wind gust speed)